createdAt,value
2022-10-06T00:01:54.531Z,19.07
2022-10-06T00:04:24.295Z,19.09
2022-10-06T00:06:54.008Z,19.11
2022-10-06T00:09:23.744Z,19.08
2022-10-06T00:11:53.525Z,19.05
2022-10-06T00:14:23.306Z,19.03
2022-10-06T00:16:55.671Z,19.02
2022-10-06T00:19:25.491Z,19.07
2022-10-06T00:21:55.427Z,19.05
2022-10-06T00:24:25.345Z,19.01
2022-10-06T00:26:55.095Z,18.98
2022-10-06T00:29:25.007Z,18.91
2022-10-06T00:31:57.999Z,18.97
2022-10-06T00:34:27.749Z,19.00
2022-10-06T00:36:57.515Z,19.01
2022-10-06T00:39:27.707Z,19.02
2022-10-06T00:41:57.452Z,19.06
2022-10-06T00:44:27.305Z,19.01
2022-10-06T00:47:00.311Z,18.98
2022-10-06T00:49:36.918Z,19.03
2022-10-06T00:52:10.306Z,19.03
2022-10-06T00:54:40.604Z,19.05
2022-10-06T00:57:10.782Z,19.03
2022-10-06T00:59:42.804Z,19.03
2022-10-06T01:02:19.614Z,19.02
2022-10-06T01:04:55.680Z,19.03
2022-10-06T01:07:29.455Z,19.04
2022-10-06T01:09:59.893Z,19.11
2022-10-06T01:12:33.482Z,19.15
2022-10-06T01:15:03.676Z,19.16
2022-10-06T01:17:40.765Z,19.18
2022-10-06T01:20:13.927Z,19.25
2022-10-06T01:22:48.518Z,19.24
2022-10-06T01:25:21.347Z,19.18
2022-10-06T01:27:53.928Z,19.19
2022-10-06T01:30:30.246Z,19.23
2022-10-06T01:33:00.254Z,19.33
2022-10-06T01:35:30.504Z,19.26
2022-10-06T01:38:04.368Z,19.29
2022-10-06T01:40:34.441Z,19.36
2022-10-06T01:43:05.027Z,19.37
2022-10-06T01:45:34.873Z,19.37
2022-10-06T01:48:04.641Z,19.30
2022-10-06T01:50:34.484Z,19.38
2022-10-06T01:53:06.836Z,19.42
2022-10-06T01:55:36.646Z,19.39
2022-10-06T01:58:08.756Z,19.37
2022-10-06T02:00:39.877Z,19.32
2022-10-06T02:03:10.200Z,19.40
2022-10-06T02:05:40.070Z,19.38
2022-10-06T02:08:12.474Z,19.40
2022-10-06T02:10:42.961Z,19.35
2022-10-06T02:13:21.447Z,19.38
2022-10-06T02:15:51.996Z,19.39
2022-10-06T02:18:21.828Z,19.38
2022-10-06T02:20:51.813Z,19.40
2022-10-06T02:23:24.221Z,19.40
2022-10-06T02:26:01.000Z,19.31
2022-10-06T02:28:32.698Z,19.30
2022-10-06T02:31:05.605Z,19.28
2022-10-06T02:33:36.190Z,19.30
2022-10-06T02:36:08.282Z,19.27
2022-10-06T02:38:41.753Z,19.29
2022-10-06T02:41:12.984Z,19.30
2022-10-06T02:43:42.974Z,19.29
2022-10-06T02:46:15.395Z,19.31
2022-10-06T02:48:54.602Z,19.33
2022-10-06T02:51:25.386Z,19.32
2022-10-06T02:53:58.172Z,19.30
2022-10-06T02:56:28.610Z,19.30
2022-10-06T02:58:59.631Z,19.31
2022-10-06T03:01:33.228Z,19.27
2022-10-06T03:04:11.754Z,19.26
2022-10-06T03:06:43.669Z,19.16
2022-10-06T03:09:22.778Z,19.18
2022-10-06T03:11:54.124Z,19.17
2022-10-06T03:14:31.396Z,19.12
2022-10-06T03:17:02.009Z,19.14
2022-10-06T03:19:32.894Z,19.14
2022-10-06T03:22:03.070Z,19.14
2022-10-06T03:24:45.499Z,19.17
2022-10-06T03:27:15.294Z,19.17
2022-10-06T03:29:46.104Z,19.20
2022-10-06T03:32:17.126Z,19.25
2022-10-06T03:34:47.872Z,19.32
2022-10-06T03:37:19.241Z,19.33
2022-10-06T03:39:51.749Z,19.34
2022-10-06T03:42:21.945Z,19.36
2022-10-06T03:44:51.856Z,19.43
2022-10-06T03:47:22.170Z,19.45
2022-10-06T03:49:52.058Z,19.49
2022-10-06T03:52:25.842Z,19.53
2022-10-06T03:54:59.126Z,19.54
2022-10-06T03:57:28.919Z,19.54
2022-10-06T03:59:59.957Z,19.52
2022-10-06T04:02:30.122Z,19.54
2022-10-06T04:05:01.012Z,19.53
2022-10-06T04:07:30.809Z,19.55
2022-10-06T04:10:03.210Z,19.55
2022-10-06T04:12:33.323Z,19.58
2022-10-06T04:15:03.201Z,19.63
2022-10-06T04:17:33.126Z,19.62
2022-10-06T04:20:03.029Z,19.63
2022-10-06T04:22:33.092Z,19.56
2022-10-06T04:25:05.488Z,19.61
2022-10-06T04:27:35.747Z,19.67
2022-10-06T04:30:10.322Z,19.67
2022-10-06T04:32:40.402Z,19.67
2022-10-06T04:35:10.860Z,19.66
2022-10-06T04:37:41.082Z,19.68
2022-10-06T04:40:13.911Z,19.69
2022-10-06T04:42:43.659Z,19.72
2022-10-06T04:45:17.359Z,19.72
2022-10-06T04:47:47.309Z,19.72
2022-10-06T04:50:17.350Z,19.74
2022-10-06T04:53:07.183Z,19.76
2022-10-06T04:55:39.505Z,19.76
2022-10-06T04:58:09.524Z,19.77
2022-10-06T05:00:39.350Z,19.76
2022-10-06T05:03:09.361Z,19.76
2022-10-06T05:05:39.336Z,19.76
2022-10-06T05:08:09.210Z,19.78
2022-10-06T05:10:42.531Z,19.75
2022-10-06T05:13:13.232Z,19.73
2022-10-06T05:15:43.656Z,19.72
2022-10-06T05:18:13.474Z,19.71
2022-10-06T05:20:43.737Z,19.66
2022-10-06T05:23:13.504Z,19.68
2022-10-06T05:25:53.431Z,19.66
2022-10-06T05:28:25.161Z,19.63
2022-10-06T05:30:59.772Z,19.65
2022-10-06T05:33:33.208Z,19.64
2022-10-06T05:36:04.760Z,19.66
2022-10-06T05:38:36.186Z,19.68
2022-10-06T05:41:10.385Z,19.68
2022-10-06T05:43:41.200Z,19.68
2022-10-06T05:46:17.540Z,19.70
2022-10-06T05:48:49.639Z,19.70
2022-10-06T05:51:25.621Z,19.68
2022-10-06T05:53:59.264Z,19.70
2022-10-06T05:56:33.948Z,19.66
2022-10-06T05:59:05.306Z,19.64
2022-10-06T06:01:37.998Z,19.63
2022-10-06T06:04:13.660Z,19.64
2022-10-06T06:06:49.515Z,19.66
2022-10-06T06:09:29.115Z,19.70
2022-10-06T06:12:04.316Z,19.70
2022-10-06T06:14:52.700Z,19.83
2022-10-06T06:17:26.443Z,20.04
2022-10-06T06:19:56.305Z,20.32
2022-10-06T06:22:26.217Z,20.54
2022-10-06T06:24:56.157Z,20.64
2022-10-06T06:27:29.555Z,20.85
2022-10-06T06:29:59.453Z,21.00
2022-10-06T06:32:30.599Z,21.20
2022-10-06T06:35:00.899Z,21.38
2022-10-06T06:37:33.564Z,21.55
2022-10-06T06:40:04.249Z,21.72
2022-10-06T06:42:41.003Z,21.82
2022-10-06T06:45:35.653Z,21.91
2022-10-06T06:48:18.267Z,21.98
2022-10-06T06:50:58.594Z,21.98
2022-10-06T06:53:30.150Z,21.95
2022-10-06T06:56:02.424Z,21.91
2022-10-06T06:58:37.316Z,21.80
2022-10-06T07:01:08.984Z,21.82
2022-10-06T07:03:56.753Z,21.97
2022-10-06T07:06:29.414Z,22.15
2022-10-06T07:09:02.210Z,22.25
2022-10-06T07:11:35.184Z,22.33
2022-10-06T07:14:12.753Z,22.30
2022-10-06T07:16:58.298Z,22.26
2022-10-06T07:19:53.328Z,22.32
2022-10-06T07:22:39.388Z,22.29
2022-10-06T07:25:25.666Z,22.23
2022-10-06T07:27:59.647Z,22.17
2022-10-06T07:30:40.528Z,22.24
2022-10-06T07:33:15.919Z,22.26
2022-10-06T07:35:47.469Z,22.31
2022-10-06T07:38:24.492Z,22.50
2022-10-06T07:41:18.257Z,22.58
2022-10-06T07:43:50.548Z,22.68
2022-10-06T07:46:23.108Z,22.55
2022-10-06T07:49:02.772Z,22.50
2022-10-06T07:51:34.363Z,22.50
2022-10-06T07:54:07.008Z,22.45
2022-10-06T07:56:44.157Z,22.43
2022-10-06T07:59:14.000Z,22.38
2022-10-06T08:01:46.874Z,22.29
2022-10-06T08:04:16.623Z,22.16
2022-10-06T08:06:47.703Z,22.07
2022-10-06T08:09:17.464Z,21.94
2022-10-06T08:11:48.932Z,21.87
2022-10-06T08:14:18.655Z,21.88
2022-10-06T08:16:51.079Z,21.85
2022-10-06T08:19:20.869Z,21.77
2022-10-06T08:21:50.676Z,21.87
2022-10-06T08:24:20.756Z,22.00
2022-10-06T08:26:50.711Z,21.95
2022-10-06T08:29:20.496Z,21.98
2022-10-06T08:31:53.061Z,22.03
2022-10-06T08:34:23.660Z,22.11
2022-10-06T08:37:18.759Z,22.20
2022-10-06T08:39:44.204Z,22.30
2022-10-06T08:42:19.188Z,22.40
2022-10-06T08:44:56.884Z,22.58
2022-10-06T08:47:33.591Z,22.56
2022-10-06T08:50:04.087Z,22.58
2022-10-06T08:52:48.969Z,22.70
2022-10-06T08:55:30.775Z,22.86
2022-10-06T09:01:05.425Z,23.23
2022-10-06T09:03:38.920Z,23.31
2022-10-06T09:06:16.691Z,23.38
2022-10-06T09:08:53.496Z,23.60
2022-10-06T09:11:41.399Z,23.60
2022-10-06T09:14:19.312Z,23.55
2022-10-06T09:16:53.761Z,23.79
2022-10-06T09:19:33.818Z,24.04
2022-10-06T09:22:05.789Z,24.17
2022-10-06T09:24:42.395Z,24.53
2022-10-06T09:27:23.176Z,24.43
2022-10-06T09:29:54.779Z,24.49
2022-10-06T09:32:26.899Z,24.45
2022-10-06T09:35:02.735Z,24.56
2022-10-06T09:37:52.958Z,25.33
2022-10-06T09:40:37.315Z,26.49
2022-10-06T09:43:18.407Z,27.79
2022-10-06T09:45:48.225Z,28.81
2022-10-06T09:48:25.164Z,29.69
2022-10-06T09:51:24.415Z,29.74
2022-10-06T09:54:14.858Z,29.58
2022-10-06T09:56:46.158Z,29.70
2022-10-06T09:59:24.068Z,30.13
2022-10-06T10:01:55.343Z,30.44
2022-10-06T10:04:28.412Z,30.71
2022-10-06T10:07:16.589Z,30.89
2022-10-06T10:09:47.993Z,31.45
2022-10-06T10:12:31.871Z,32.00
2022-10-06T10:15:04.666Z,32.38
2022-10-06T10:17:50.813Z,32.20
2022-10-06T10:20:38.725Z,32.14
2022-10-06T10:23:30.066Z,32.65
2022-10-06T10:26:18.036Z,33.38
2022-10-06T10:29:04.719Z,33.90
2022-10-06T10:31:50.785Z,34.21
2022-10-06T10:34:43.206Z,34.21
2022-10-06T10:37:17.694Z,33.79
2022-10-06T10:39:56.415Z,33.19
2022-10-06T10:42:37.236Z,32.60
2022-10-06T10:45:15.100Z,32.20
2022-10-06T10:47:47.239Z,31.58
2022-10-06T10:50:27.312Z,31.10
2022-10-06T10:53:02.121Z,30.64
2022-10-06T10:55:40.136Z,30.63
2022-10-06T10:58:19.499Z,30.78
2022-10-06T11:00:55.760Z,30.86
2022-10-06T11:03:25.629Z,31.25
2022-10-06T11:06:17.398Z,31.96
2022-10-06T11:08:55.267Z,32.48
2022-10-06T11:11:41.887Z,32.68
2022-10-06T11:14:24.544Z,32.86
2022-10-06T11:17:01.719Z,32.80
2022-10-06T11:19:45.981Z,32.52
2022-10-06T11:22:24.741Z,32.31
2022-10-06T11:25:09.070Z,31.98
2022-10-06T11:27:48.355Z,31.92
2022-10-06T11:30:20.897Z,31.97
2022-10-06T11:33:01.516Z,32.10
2022-10-06T11:35:37.800Z,32.02
2022-10-06T11:38:15.633Z,32.77
2022-10-06T11:41:10.448Z,33.13
2022-10-06T11:43:49.925Z,33.99
2022-10-06T11:46:36.205Z,35.34
2022-10-06T11:49:37.000Z,36.83
2022-10-06T11:52:36.573Z,37.74
2022-10-06T11:55:18.228Z,36.21
2022-10-06T11:58:37.420Z,36.81
2022-10-06T12:01:02.521Z,37.28
2022-10-06T12:04:15.327Z,37.08
2022-10-06T12:07:00.513Z,37.26
2022-10-06T12:09:33.539Z,37.46
2022-10-06T12:12:04.852Z,37.57
2022-10-06T12:17:46.624Z,37.53
2022-10-06T12:20:23.257Z,37.96
2022-10-06T12:22:58.059Z,38.20
2022-10-06T12:25:35.464Z,38.62
2022-10-06T12:28:17.848Z,39.61
2022-10-06T12:31:04.068Z,41.06
2022-10-06T12:33:42.224Z,42.09
2022-10-06T12:36:21.205Z,42.42
2022-10-06T12:39:07.639Z,42.22
2022-10-06T12:42:02.547Z,39.63
2022-10-06T12:44:36.660Z,36.73
2022-10-06T12:47:13.018Z,34.34
2022-10-06T12:49:58.638Z,32.25
2022-10-06T12:52:43.384Z,30.86
2022-10-06T12:55:46.713Z,29.73
2022-10-06T12:58:20.733Z,28.73
2022-10-06T13:00:50.936Z,28.22
2022-10-06T13:03:26.893Z,27.84
2022-10-06T13:06:02.550Z,27.71
2022-10-06T13:08:34.754Z,27.50
2022-10-06T13:11:15.403Z,27.22
2022-10-06T13:13:53.319Z,27.00
2022-10-06T13:16:26.516Z,26.80
2022-10-06T13:18:59.000Z,26.69
2022-10-06T13:21:32.874Z,26.47
2022-10-06T13:24:02.744Z,26.29
2022-10-06T13:26:34.747Z,26.19
2022-10-06T13:29:05.944Z,26.03
2022-10-06T13:31:38.385Z,25.90
2022-10-06T13:34:12.187Z,25.76
2022-10-06T13:36:47.738Z,25.67
2022-10-06T13:39:19.631Z,25.49
2022-10-06T13:41:52.496Z,25.42
2022-10-06T13:44:35.210Z,25.35
2022-10-06T13:47:07.618Z,25.29
2022-10-06T13:49:50.224Z,25.23
2022-10-06T13:52:26.798Z,25.14
2022-10-06T13:55:00.818Z,25.03
2022-10-06T13:57:43.112Z,24.92
2022-10-06T14:00:22.578Z,24.76
2022-10-06T14:02:54.940Z,24.59
2022-10-06T14:05:31.584Z,24.49
2022-10-06T14:08:06.980Z,24.46
2022-10-06T14:10:49.135Z,24.43
2022-10-06T14:13:22.829Z,24.34
2022-10-06T14:15:54.390Z,24.23
2022-10-06T14:18:27.746Z,24.22
2022-10-06T14:20:58.743Z,24.27
2022-10-06T14:23:58.259Z,24.25
2022-10-06T14:26:30.356Z,24.29
2022-10-06T14:29:00.781Z,24.32
2022-10-06T14:31:33.432Z,24.29
2022-10-06T14:34:03.956Z,24.28
2022-10-06T14:36:35.507Z,24.20
2022-10-06T14:39:09.113Z,24.26
2022-10-06T14:41:39.002Z,24.27
2022-10-06T14:44:11.549Z,24.28
2022-10-06T14:46:43.253Z,24.30
2022-10-06T14:49:14.347Z,24.31
2022-10-06T14:51:45.773Z,24.31
2022-10-06T14:54:18.160Z,24.26
2022-10-06T14:56:47.873Z,24.20
2022-10-06T14:59:18.255Z,24.10
2022-10-06T15:01:49.371Z,24.01
2022-10-06T15:04:24.368Z,23.91
2022-10-06T15:07:06.607Z,23.89
2022-10-06T15:09:39.058Z,23.91
2022-10-06T15:12:08.785Z,23.83
2022-10-06T15:14:40.017Z,23.77
2022-10-06T15:17:09.967Z,23.69
2022-10-06T15:19:40.364Z,23.66
2022-10-06T15:22:10.486Z,23.65
2022-10-06T15:24:43.269Z,23.64
2022-10-06T15:27:25.475Z,23.65
2022-10-06T15:29:56.107Z,23.65
2022-10-06T15:32:25.970Z,23.62
2022-10-06T15:34:55.782Z,23.59
2022-10-06T15:37:25.540Z,23.56
2022-10-06T15:39:58.118Z,23.43
2022-10-06T15:42:28.126Z,23.37
2022-10-06T15:44:57.944Z,23.34
2022-10-06T15:47:28.083Z,23.35
2022-10-06T15:49:57.970Z,23.40
2022-10-06T15:52:29.502Z,23.37
2022-10-06T15:55:02.003Z,23.34
2022-10-06T15:57:31.800Z,23.35
2022-10-06T16:00:01.644Z,23.34
2022-10-06T16:02:35.687Z,23.32
2022-10-06T16:05:45.813Z,23.30
2022-10-06T16:08:15.590Z,23.26
2022-10-06T16:10:52.387Z,23.19
2022-10-06T16:13:22.220Z,23.16
2022-10-06T16:15:55.600Z,23.11
2022-10-06T16:18:25.776Z,23.11
2022-10-06T16:20:56.406Z,23.08
2022-10-06T16:23:26.322Z,23.02
2022-10-06T16:25:58.688Z,22.99
2022-10-06T16:28:28.580Z,22.95
2022-10-06T16:30:59.159Z,22.94
2022-10-06T16:33:29.018Z,22.93
2022-10-06T16:35:58.972Z,22.89
2022-10-06T16:38:29.244Z,22.84
2022-10-06T16:41:03.799Z,22.82
2022-10-06T16:43:34.904Z,22.81
2022-10-06T16:46:07.193Z,22.82
2022-10-06T16:48:39.289Z,22.78
2022-10-06T16:51:11.272Z,22.77
2022-10-06T16:53:42.662Z,22.71
2022-10-06T16:56:17.624Z,22.65
2022-10-06T16:58:48.854Z,22.61
2022-10-06T17:01:20.289Z,22.56
2022-10-06T17:03:50.206Z,22.52
2022-10-06T17:06:20.998Z,22.46
2022-10-06T17:08:50.786Z,22.45
2022-10-06T17:11:25.418Z,22.39
2022-10-06T17:13:57.854Z,22.36
2022-10-06T17:16:29.766Z,22.34
2022-10-06T17:19:00.710Z,22.30
2022-10-06T17:21:45.568Z,22.24
2022-10-06T17:24:17.839Z,22.17
2022-10-06T17:26:52.894Z,22.11
2022-10-06T17:29:25.040Z,22.06
2022-10-06T17:31:59.251Z,22.05
2022-10-06T17:34:32.819Z,22.02
2022-10-06T17:37:04.683Z,21.97
2022-10-06T17:39:34.410Z,21.92
2022-10-06T17:42:07.272Z,21.88
2022-10-06T17:44:37.092Z,21.87
2022-10-06T17:47:12.320Z,21.81
2022-10-06T17:49:42.051Z,21.79
2022-10-06T17:52:12.051Z,21.75
2022-10-06T17:54:45.451Z,21.72
2022-10-06T17:57:19.545Z,21.68
2022-10-06T17:59:50.665Z,21.63
2022-10-06T18:02:20.480Z,21.62
2022-10-06T18:04:51.065Z,21.63
2022-10-06T18:07:20.873Z,21.62
2022-10-06T18:10:10.826Z,21.59
2022-10-06T18:12:40.833Z,21.54
2022-10-06T18:15:12.459Z,21.50
2022-10-06T18:17:42.475Z,21.47
2022-10-06T18:20:12.486Z,21.40
2022-10-06T18:22:42.679Z,21.31
2022-10-06T18:25:17.031Z,21.27
2022-10-06T18:27:49.761Z,21.23
2022-10-06T18:30:19.709Z,21.21
2022-10-06T18:38:31.343Z,21.10
2022-10-06T18:41:03.977Z,21.03
2022-10-06T18:43:36.405Z,20.97
2022-10-06T18:46:20.845Z,20.95
2022-10-06T18:49:00.028Z,20.94
2022-10-06T18:51:32.412Z,20.86
2022-10-06T18:54:05.311Z,20.81
2022-10-06T18:56:37.661Z,20.79
2022-10-06T18:59:13.920Z,20.77
2022-10-06T19:01:46.386Z,20.75
2022-10-06T19:04:17.566Z,20.72
2022-10-06T19:06:49.639Z,20.70
2022-10-06T19:09:23.900Z,20.71
2022-10-06T19:11:56.545Z,20.69
2022-10-06T19:14:31.373Z,20.65
2022-10-06T19:17:03.363Z,20.63
2022-10-06T19:19:34.193Z,20.59
2022-10-06T19:22:06.234Z,20.55
2022-10-06T19:24:38.892Z,20.53
2022-10-06T19:27:13.038Z,20.52
2022-10-06T19:29:48.430Z,20.44
2022-10-06T19:32:21.353Z,20.40
2022-10-06T19:34:51.499Z,20.37
2022-10-06T19:37:21.643Z,20.33
2022-10-06T19:39:56.037Z,20.30
2022-10-06T19:42:38.262Z,20.27
2022-10-06T19:45:12.425Z,20.21
2022-10-06T19:47:42.980Z,20.18
2022-10-06T19:50:13.138Z,20.18
2022-10-06T19:52:43.544Z,20.18
2022-10-06T19:55:13.468Z,20.15
2022-10-06T19:57:43.791Z,20.13
2022-10-06T20:00:17.843Z,20.08
2022-10-06T20:02:48.004Z,20.06
2022-10-06T20:05:20.021Z,20.05
2022-10-06T20:07:50.362Z,20.04
2022-10-06T20:10:20.327Z,20.02
2022-10-06T20:12:50.103Z,20.01
2022-10-06T20:15:22.669Z,19.99
2022-10-06T20:17:52.522Z,19.98
2022-10-06T20:20:22.334Z,19.93
2022-10-06T20:22:53.957Z,19.88
2022-10-06T20:25:23.737Z,19.84
2022-10-06T20:27:53.517Z,19.78
2022-10-06T20:30:25.856Z,19.76
2022-10-06T20:32:55.625Z,19.74
2022-10-06T20:35:25.390Z,19.72
2022-10-06T20:37:55.303Z,19.66
2022-10-06T20:40:37.532Z,19.63
2022-10-06T20:43:07.506Z,19.63
2022-10-06T20:45:39.891Z,19.61
2022-10-06T20:48:10.034Z,19.60
2022-10-06T20:50:39.812Z,19.59
2022-10-06T20:53:09.694Z,19.59
2022-10-06T20:55:39.714Z,19.56
2022-10-06T20:58:09.758Z,19.53
2022-10-06T21:00:42.134Z,19.52
2022-10-06T21:03:12.074Z,19.49
2022-10-06T21:05:41.980Z,19.45
2022-10-06T21:08:12.067Z,19.42
2022-10-06T21:10:41.863Z,19.38
2022-10-06T21:13:11.703Z,19.38
2022-10-06T21:15:48.890Z,19.34
2022-10-06T21:18:19.076Z,19.32
2022-10-06T21:20:57.948Z,19.28
2022-10-06T21:23:27.815Z,19.30
2022-10-06T21:25:57.784Z,19.27
2022-10-06T21:28:28.225Z,19.25
2022-10-06T21:31:04.710Z,19.21
2022-10-06T21:33:41.459Z,19.20
2022-10-06T21:36:15.462Z,19.16
2022-10-06T21:38:47.450Z,19.15
2022-10-06T21:41:31.853Z,19.12
2022-10-06T21:44:03.504Z,19.09
2022-10-06T21:46:37.534Z,19.04
2022-10-06T21:49:09.830Z,19.03
2022-10-06T21:51:40.637Z,19.00
2022-10-06T21:54:10.886Z,18.94
2022-10-06T21:56:41.753Z,18.91
2022-10-06T21:59:12.410Z,18.91
2022-10-06T22:01:46.612Z,18.88
2022-10-06T22:04:17.500Z,18.88
2022-10-06T22:06:50.203Z,18.89
2022-10-06T22:09:22.103Z,18.86
2022-10-06T22:11:52.225Z,18.84
2022-10-06T22:14:22.712Z,18.80
2022-10-06T22:16:55.071Z,18.77
2022-10-06T22:19:24.834Z,18.75
2022-10-06T22:21:54.619Z,18.71
2022-10-06T22:24:24.881Z,18.68
2022-10-06T22:26:54.668Z,18.66
2022-10-06T22:29:24.773Z,18.64
2022-10-06T22:31:58.711Z,18.61
2022-10-06T22:34:29.875Z,18.61
2022-10-06T22:37:00.750Z,18.57
2022-10-06T22:39:30.705Z,18.55
2022-10-06T22:42:00.456Z,18.53
2022-10-06T22:44:30.260Z,18.47
2022-10-06T22:47:02.717Z,18.44
2022-10-06T22:49:32.503Z,18.44
2022-10-06T22:52:02.273Z,18.41
2022-10-06T22:54:32.394Z,18.36
2022-10-06T22:57:02.595Z,18.33
2022-10-06T22:59:32.369Z,18.31
2022-10-06T23:02:04.949Z,18.31
2022-10-06T23:04:34.780Z,18.29
2022-10-06T23:07:04.719Z,18.24
2022-10-06T23:09:35.290Z,18.16
2022-10-06T23:12:05.118Z,18.10
2022-10-06T23:14:34.951Z,18.09
2022-10-06T23:17:07.502Z,18.05
2022-10-06T23:19:37.318Z,18.05
2022-10-06T23:22:07.313Z,18.02
2022-10-06T23:24:37.059Z,18.02
2022-10-06T23:27:07.352Z,17.99
2022-10-06T23:29:37.085Z,17.94
2022-10-06T23:32:09.437Z,17.89
2022-10-06T23:34:39.286Z,17.91
2022-10-06T23:37:09.072Z,17.94
2022-10-06T23:39:38.914Z,17.92
2022-10-06T23:42:09.738Z,17.90
2022-10-06T23:44:40.357Z,17.90
2022-10-06T23:47:14.447Z,17.89
2022-10-06T23:49:44.290Z,17.89
2022-10-06T23:52:14.157Z,17.86
2022-10-06T23:54:44.564Z,17.85
2022-10-06T23:57:14.565Z,17.83
2022-10-06T23:59:44.326Z,17.78
